Time;durP1;ratioP1;P1;durP2;ratioP2;P2;SDS_P1;SDS_P2;PMS_P1;PMS_P2;Temp;Humidity;BMP_temperature;BMP_pressure;BME280_temperature;BME280_humidity;BME280_pressure;Samples;Min_cycle;Max_cycle;Signal;HPM_P1;HPM_P2
2022/12/15 00:39:43;;;;;;;8.13;3.28;;;-0.90;99.90;;;;;;4220083;28;20040;-84
2022/12/15 00:41:46;;;;;;;5.15;2.60;;;-0.90;99.90;;;;;;4220490;28;20058;-84
2022/12/15 00:43:47;;;;;;;6.22;2.80;;;-0.90;99.90;;;;;;4202043;28;20083;-85
2022/12/15 00:48:10;;;;;;;7.13;2.88;;;-0.50;99.90;;;;;;4220107;28;20044;-85
2022/12/15 01:21:35;;;;;;;4.97;2.15;;;-0.90;99.90;;;;;;4220283;28;20060;-85
2022/12/15 01:23:38;;;;;;;4.85;2.80;;;-0.90;99.90;;;;;;4219725;28;20083;-85
2022/12/15 01:25:38;;;;;;;8.32;2.20;;;-0.60;99.90;;;;;;4219553;28;20476;-85
2022/12/15 01:27:40;;;;;;;3.75;1.88;;;-0.90;99.90;;;;;;4202852;28;20051;-86
2022/12/15 01:29:46;;;;;;;4.75;1.85;;;-0.90;99.90;;;;;;4202152;28;20044;-84
2022/12/15 01:31:47;;;;;;;8.65;1.88;;;-0.90;99.90;;;;;;4201954;28;20524;-85
2022/12/15 01:33:53;;;;;;;6.63;1.80;;;-0.90;99.90;;;;;;4201740;28;20048;-84
2022/12/15 01:35:59;;;;;;;5.78;2.08;;;-0.90;99.90;;;;;;4218754;28;20055;-84
2022/12/15 01:38:01;;;;;;;5.15;1.75;;;-0.90;99.90;;;;;;4219949;28;20044;-84
2022/12/15 01:42:24;;;;;;;5.85;2.08;;;-0.90;99.90;;;;;;4220415;28;20450;-85
2022/12/15 01:44:26;;;;;;;4.82;2.10;;;-0.10;99.90;;;;;;4222025;28;20443;-84
2022/12/15 01:46:31;;;;;;;4.05;2.10;;;-1.00;99.90;;;;;;4204037;28;20053;-84
2022/12/15 01:48:45;;;;;;;4.95;2.03;;;-0.90;99.90;;;;;;4236052;28;20040;-85
2022/12/15 01:51:00;;;;;;;4.20;2.05;;;-1.00;99.90;;;;;;4221575;28;20044;-84
2022/12/15 01:53:05;;;;;;;3.10;1.90;;;-1.00;99.90;;;;;;4239705;27;20103;-85
2022/12/15 01:55:10;;;;;;;5.47;2.25;;;-1.00;99.90;;;;;;4239877;28;20040;-85
2022/12/15 01:57:27;;;;;;;6.18;2.08;;;-1.00;99.90;;;;;;4222120;28;20114;-86
2022/12/15 01:59:50;;;;;;;5.20;2.80;;;-1.00;99.90;;;;;;4221966;28;20047;-85
2022/12/15 02:01:53;;;;;;;4.65;2.30;;;-1.00;99.90;;;;;;4238926;28;20408;-85
2022/12/15 02:03:54;;;;;;;3.80;1.73;;;-1.00;99.90;;;;;;4239701;28;20108;-85
2022/12/15 02:05:59;;;;;;;5.78;2.20;;;0.10;99.90;;;;;;4221910;28;20040;-85
2022/12/15 02:08:02;;;;;;;4.22;1.67;;;0.20;99.90;;;;;;4239400;28;20043;-85
2022/12/15 02:10:06;;;;;;;5.97;2.03;;;-1.00;99.90;;;;;;4222206;28;20078;-86
2022/12/15 02:12:45;;;;;;;7.75;2.10;;;-1.00;99.90;;;;;;4222583;28;20044;-85
2022/12/15 02:15:08;;;;;;;3.90;1.83;;;-1.00;99.90;;;;;;4239932;28;20051;-86
2022/12/15 02:17:47;;;;;;;3.03;1.52;;;-1.00;99.90;;;;;;4238823;28;20069;-86
2022/12/15 02:20:29;;;;;;;5.95;2.85;;;-1.00;99.90;;;;;;4222325;28;20040;-85
2022/12/15 02:22:57;;;;;;;4.28;1.60;;;-1.00;99.90;;;;;;4224306;28;20392;-85
2022/12/15 02:25:28;;;;;;;6.85;2.17;;;-1.00;99.90;;;;;;4223045;28;20531;-85
2022/12/15 02:27:38;;;;;;;7.78;2.33;;;-1.10;99.90;;;;;;4206259;28;20048;-86
2022/12/15 02:30:04;;;;;;;7.28;2.83;;;-1.20;99.90;;;;;;4222233;28;20044;-86
2022/12/15 02:32:30;;;;;;;4.18;1.60;;;-1.10;99.90;;;;;;4205795;28;20044;-86
2022/12/15 02:34:30;;;;;;;5.15;2.13;;;-1.10;99.90;;;;;;4206081;28;20040;-85
2022/12/15 02:36:38;;;;;;;5.53;1.70;;;-0.40;99.90;;;;;;4205330;28;20072;-85
2022/12/15 02:38:40;;;;;;;4.38;1.52;;;-0.70;99.90;;;;;;4222059;28;20078;-84
2022/12/15 02:40:43;;;;;;;3.15;1.48;;;-1.00;99.90;;;;;;4205070;28;20036;-85
2022/12/15 02:42:54;;;;;;;8.35;2.33;;;-0.70;99.90;;;;;;4221806;28;20052;-84
2022/12/15 02:45:06;;;;;;;7.78;1.45;;;-0.80;99.90;;;;;;4222844;28;20487;-84
2022/12/15 02:47:51;;;;;;;4.68;1.45;;;-0.80;99.90;;;;;;4222351;28;20079;-84
2022/12/15 02:50:02;;;;;;;3.53;1.55;;;-0.70;99.90;;;;;;4237928;28;20654;-84
2022/12/15 02:52:21;;;;;;;5.00;1.80;;;-0.70;99.90;;;;;;4220812;28;20054;-84
2022/12/15 02:54:52;;;;;;;6.47;1.65;;;-0.70;99.90;;;;;;4221498;28;20466;-84
2022/12/15 02:57:23;;;;;;;5.95;2.13;;;-0.70;99.90;;;;;;4224656;28;20097;-83
2022/12/15 02:59:54;;;;;;;11.20;2.10;;;-0.70;99.90;;;;;;4238190;28;20553;-84
2022/12/15 03:02:04;;;;;;;4.47;1.83;;;-0.80;99.90;;;;;;4215057;28;20139;-84
2022/12/15 03:04:08;;;;;;;11.95;2.85;;;0.10;99.90;;;;;;4239147;28;20492;-84
2022/12/15 03:06:09;;;;;;;4.60;2.38;;;-0.90;99.90;;;;;;4221478;28;20136;-84
2022/12/15 03:08:10;;;;;;;8.52;2.20;;;-0.90;99.90;;;;;;4220922;28;20047;-84
2022/12/15 03:10:13;;;;;;;4.70;1.83;;;-0.90;99.90;;;;;;4220482;28;20082;-85
2022/12/15 03:12:14;;;;;;;7.20;2.95;;;0.60;99.90;;;;;;4237114;28;20047;-84
2022/12/15 03:14:20;;;;;;;9.27;2.20;;;-1.00;99.90;;;;;;4238185;28;20043;-84
2022/12/15 03:16:30;;;;;;;7.88;1.98;;;-1.00;99.90;;;;;;4238469;28;20497;-85
2022/12/15 03:18:34;;;;;;;4.97;1.88;;;-1.00;99.90;;;;;;4238123;28;20039;-84
2022/12/15 03:20:39;;;;;;;4.07;2.00;;;-1.00;99.90;;;;;;4238893;28;20036;-85
2022/12/15 03:22:46;;;;;;;5.28;2.42;;;-1.00;99.90;;;;;;4237187;28;20056;-84
2022/12/15 03:24:47;;;;;;;8.05;2.90;;;-1.10;99.90;;;;;;4238111;28;20075;-84
2022/12/15 03:26:48;;;;;;;4.57;2.30;;;-0.10;99.90;;;;;;4238192;28;20088;-85
2022/12/15 03:28:52;;;;;;;6.60;3.25;;;-1.10;99.90;;;;;;4237844;28;20052;-84
2022/12/15 03:30:52;;;;;;;6.25;2.60;;;-1.10;99.90;;;;;;4238498;28;20062;-84
2022/12/15 03:32:53;;;;;;;8.73;1.85;;;-1.20;99.90;;;;;;4237395;28;20078;-85
2022/12/15 03:34:55;;;;;;;8.18;2.63;;;-1.20;99.90;;;;;;4238015;28;20146;-84
2022/12/15 03:36:59;;;;;;;5.47;1.65;;;-1.20;99.90;;;;;;4238679;28;20072;-84
2022/12/15 03:39:00;;;;;;;10.48;2.15;;;-1.10;99.90;;;;;;4221321;28;20055;-84
2022/12/15 03:41:02;;;;;;;5.53;2.17;;;-1.20;99.90;;;;;;4237576;28;20507;-85
2022/12/15 03:43:06;;;;;;;8.07;1.75;;;-1.10;99.90;;;;;;4221919;28;20048;-85
2022/12/15 03:45:07;;;;;;;8.13;1.70;;;-1.10;99.90;;;;;;4237771;28;20044;-84
2022/12/15 03:47:09;;;;;;;6.03;1.30;;;-1.10;99.90;;;;;;4220520;28;20123;-85
2022/12/15 03:49:10;;;;;;;4.35;1.45;;;-1.10;99.90;;;;;;4236679;28;20123;-85
2022/12/15 03:51:14;;;;;;;8.48;1.85;;;-1.10;99.90;;;;;;4238621;28;20082;-84
2022/12/15 03:53:17;;;;;;;5.10;1.08;;;-1.10;99.90;;;;;;4237732;28;20043;-85
2022/12/15 03:55:27;;;;;;;2.85;1.50;;;-0.20;99.90;;;;;;4220368;28;20047;-84
2022/12/15 03:57:31;;;;;;;5.15;1.70;;;-0.70;99.90;;;;;;4236721;28;20131;-85
2022/12/15 03:59:32;;;;;;;4.70;1.70;;;-1.00;99.90;;;;;;4238536;28;20078;-85
2022/12/15 04:01:36;;;;;;;3.47;1.45;;;-0.40;99.90;;;;;;4238093;28;20519;-85
2022/12/15 04:03:38;;;;;;;6.47;1.27;;;-0.70;99.90;;;;;;4238556;28;20079;-84
2022/12/15 04:05:38;;;;;;;5.22;1.25;;;0.30;99.90;;;;;;4237518;28;20090;-84
2022/12/15 04:07:39;;;;;;;8.15;1.52;;;-0.70;99.90;;;;;;4220919;28;20462;-84
2022/12/15 04:09:41;;;;;;;3.25;1.90;;;-1.10;99.90;;;;;;4221133;28;20044;-85
2022/12/15 04:11:43;;;;;;;2.60;1.08;;;-1.10;99.90;;;;;;4239648;28;20449;-84
2022/12/15 04:13:44;;;;;;;7.13;1.77;;;-1.30;99.90;;;;;;4221098;28;20056;-84
2022/12/15 04:15:45;;;;;;;12.32;1.90;;;-1.10;99.90;;;;;;4237959;28;20043;-84
2022/12/15 04:17:46;;;;;;;5.78;2.15;;;-1.10;99.90;;;;;;4237855;28;20039;-84
2022/12/15 04:20:07;;;;;;;6.53;2.03;;;-1.10;99.90;;;;;;4221546;28;20048;-84
2022/12/15 04:22:08;;;;;;;4.10;1.73;;;-1.10;99.90;;;;;;4224874;28;20077;-84
2022/12/15 05:32:57;;;;;;;6.05;1.45;;;-0.70;99.90;;;;;;4241466;28;20055;-84
2022/12/15 05:34:57;;;;;;;5.85;1.48;;;-0.70;99.90;;;;;;4240381;28;20051;-84
2022/12/15 05:37:01;;;;;;;8.57;1.58;;;-0.70;99.90;;;;;;4241896;28;20078;-84
2022/12/15 05:39:03;;;;;;;3.83;1.50;;;-0.30;99.90;;;;;;4241429;28;20047;-85
2022/12/15 05:41:04;;;;;;;6.30;1.50;;;-0.60;99.90;;;;;;4240001;28;20039;-85
2022/12/15 05:43:06;;;;;;;5.03;1.70;;;-0.60;99.90;;;;;;4241211;28;20040;-84
2022/12/15 05:45:09;;;;;;;4.20;1.38;;;-0.60;99.90;;;;;;4240506;28;20050;-85
2022/12/15 05:47:11;;;;;;;4.65;1.58;;;-0.60;99.90;;;;;;4221691;28;20070;-85
2022/12/15 05:49:14;;;;;;;6.72;1.67;;;-0.60;99.90;;;;;;4206108;28;20126;-84
2022/12/15 05:51:15;;;;;;;4.00;1.58;;;-0.60;99.90;;;;;;4205848;28;20049;-85
2022/12/15 05:53:16;;;;;;;6.25;1.80;;;-0.60;99.90;;;;;;4206685;28;20056;-84
2022/12/15 05:55:18;;;;;;;7.47;2.50;;;-0.60;99.90;;;;;;4222836;28;20101;-83
2022/12/15 05:57:20;;;;;;;6.78;2.70;;;0.60;99.90;;;;;;4224170;28;20043;-84
2022/12/15 05:59:21;;;;;;;4.97;2.30;;;0.60;99.90;;;;;;4221850;28;20059;-85
2022/12/15 06:01:24;;;;;;;7.75;2.28;;;-0.70;99.90;;;;;;4225080;28;20044;-84
2022/12/15 06:03:26;;;;;;;4.55;2.15;;;-0.70;99.90;;;;;;4223083;28;20063;-84
2022/12/15 06:05:27;;;;;;;6.20;2.40;;;-0.70;99.90;;;;;;4224410;28;20048;-84
2022/12/15 06:07:32;;;;;;;5.90;2.45;;;-0.70;99.90;;;;;;4237810;28;20508;-84
2022/12/15 06:09:38;;;;;;;9.90;2.60;;;-0.70;99.90;;;;;;4221870;28;20123;-84
2022/12/15 06:11:41;;;;;;;5.90;2.15;;;-0.70;99.90;;;;;;4221993;28;20044;-84
2022/12/15 06:13:46;;;;;;;7.38;3.83;;;-0.80;99.90;;;;;;4233770;28;20058;-84
2022/12/15 06:15:57;;;;;;;5.50;2.30;;;-0.80;99.90;;;;;;4234443;28;20049;-84
2022/12/15 06:18:00;;;;;;;5.82;2.10;;;-0.80;99.90;;;;;;4230138;28;20048;-84
2022/12/15 06:20:03;;;;;;;9.57;2.67;;;-0.80;99.90;;;;;;4205877;28;20036;-83
2022/12/15 06:22:04;;;;;;;7.28;2.30;;;-0.80;99.90;;;;;;4211106;28;20044;-84
2022/12/15 06:24:05;;;;;;;7.45;2.38;;;-0.80;99.90;;;;;;4215983;28;20110;-83
2022/12/15 06:26:14;;;;;;;4.03;2.88;;;-0.80;99.90;;;;;;4220022;28;20040;-83
2022/12/15 06:28:22;;;;;;;6.75;2.20;;;-1.00;99.90;;;;;;4203431;28;20044;-83
2022/12/15 06:30:24;;;;;;;7.40;2.45;;;-0.80;99.90;;;;;;4220586;28;20040;-84
2022/12/15 06:32:27;;;;;;;5.03;2.03;;;0.00;99.90;;;;;;4202953;28;20102;-83
2022/12/15 06:34:28;;;;;;;3.75;2.15;;;-0.70;99.90;;;;;;4221073;28;20044;-83
2022/12/15 06:36:29;;;;;;;6.97;2.47;;;0.10;99.90;;;;;;4229295;28;20036;-83
2022/12/15 06:38:30;;;;;;;10.18;3.40;;;-0.70;99.90;;;;;;4203789;28;20404;-83
2022/12/15 06:40:40;;;;;;;8.38;2.28;;;-0.70;99.90;;;;;;4218609;28;20051;-83
2022/12/15 06:42:45;;;;;;;4.57;2.13;;;-0.70;99.90;;;;;;4220267;28;20048;-83
2022/12/15 06:44:46;;;;;;;4.88;2.20;;;-0.70;99.90;;;;;;4219676;28;20055;-83
2022/12/15 06:46:46;;;;;;;8.13;3.22;;;0.30;99.90;;;;;;4219994;28;20039;-83
2022/12/15 06:48:47;;;;;;;7.95;2.72;;;-0.70;99.90;;;;;;4221214;28;20044;-83
2022/12/15 06:50:49;;;;;;;9.25;3.17;;;-0.60;99.90;;;;;;4219544;28;20040;-84
2022/12/15 06:52:50;;;;;;;8.38;2.97;;;-0.70;99.90;;;;;;4220482;28;20055;-83
2022/12/15 06:54:53;;;;;;;7.18;2.45;;;-0.70;99.90;;;;;;4220841;28;20048;-83
2022/12/15 06:56:55;;;;;;;9.13;3.22;;;-0.70;99.90;;;;;;4234102;28;20534;-84
2022/12/15 06:58:57;;;;;;;6.10;2.50;;;-0.60;99.90;;;;;;4239661;28;20043;-83
2022/12/15 07:01:07;;;;;;;6.45;2.50;;;-0.60;99.90;;;;;;4246842;28;20044;-83
2022/12/15 07:03:17;;;;;;;7.13;2.83;;;-0.60;99.90;;;;;;4246396;28;20107;-83
2022/12/15 07:05:20;;;;;;;8.23;2.63;;;-0.10;99.90;;;;;;4247084;28;20051;-83
2022/12/15 07:07:22;;;;;;;8.30;3.28;;;-0.50;99.90;;;;;;4243253;28;20051;-83
2022/12/15 07:09:25;;;;;;;8.93;2.67;;;0.30;99.90;;;;;;4237926;28;20044;-84
2022/12/15 07:11:25;;;;;;;5.50;2.92;;;-0.60;99.90;;;;;;4234932;28;20100;-84
2022/12/15 07:13:26;;;;;;;6.30;2.72;;;-0.50;99.90;;;;;;4163226;28;1686152;-85
2022/12/15 07:15:30;;;;;;;10.30;4.05;;;-0.50;99.90;;;;;;4204067;28;20044;-85
2022/12/15 07:17:35;;;;;;;5.18;2.67;;;-0.50;99.90;;;;;;4222427;28;20400;-85
2022/12/15 07:19:37;;;;;;;6.28;3.08;;;-0.50;99.90;;;;;;4220854;28;20044;-84
2022/12/15 07:21:40;;;;;;;9.65;3.03;;;-0.50;99.90;;;;;;4203083;28;20106;-85
2022/12/15 07:23:40;;;;;;;20.92;3.20;;;-0.20;99.90;;;;;;4221365;28;20047;-85
2022/12/15 07:25:50;;;;;;;9.82;3.55;;;-0.90;99.90;;;;;;4219099;28;20048;-85
2022/12/15 07:27:51;;;;;;;8.93;3.20;;;-0.10;99.90;;;;;;4218286;28;20097;-85
2022/12/15 07:29:54;;;;;;;9.27;3.00;;;0.80;99.90;;;;;;4202217;28;20101;-84
2022/12/15 07:31:55;;;;;;;10.90;2.72;;;0.50;99.90;;;;;;4224229;28;20408;-84
2022/12/15 07:33:58;;;;;;;7.20;3.10;;;-0.40;99.90;;;;;;4203924;28;20048;-85
2022/12/15 07:36:00;;;;;;;6.93;3.15;;;-0.50;99.90;;;;;;4203915;28;20463;-84
2022/12/15 07:38:05;;;;;;;10.07;3.28;;;-0.40;99.90;;;;;;4222436;28;20051;-84
2022/12/15 07:40:07;;;;;;;12.52;3.20;;;0.80;99.90;;;;;;4203921;28;20049;-84
2022/12/15 07:42:09;;;;;;;8.35;3.00;;;-0.40;99.90;;;;;;4203456;28;20635;-84
2022/12/15 07:44:11;;;;;;;13.23;3.38;;;-0.40;99.90;;;;;;4203136;28;20528;-84
2022/12/15 07:46:12;;;;;;;7.78;3.25;;;-0.40;99.90;;;;;;4204857;28;20060;-84
2022/12/15 07:48:14;;;;;;;11.57;3.80;;;-0.50;99.90;;;;;;4222532;28;20139;-84
2022/12/15 07:50:15;;;;;;;5.82;3.03;;;-0.30;99.90;;;;;;4237195;28;20047;-85
2022/12/15 07:52:17;;;;;;;13.98;3.92;;;-0.20;99.90;;;;;;4236971;28;20044;-85
2022/12/15 07:54:19;;;;;;;14.45;3.97;;;-0.30;99.90;;;;;;4236283;28;20130;-84
2022/12/15 07:56:21;;;;;;;9.57;2.60;;;-0.30;99.90;;;;;;4237761;28;20040;-83
2022/12/15 07:58:23;;;;;;;9.65;2.83;;;-0.20;99.90;;;;;;4237113;28;20047;-84
2022/12/15 08:00:24;;;;;;;9.77;4.25;;;-0.20;99.90;;;;;;4237569;28;20039;-84
2022/12/15 08:02:26;;;;;;;8.57;2.70;;;-0.10;99.90;;;;;;4237268;28;20050;-84
2022/12/15 08:04:31;;;;;;;7.75;3.10;;;0.90;99.90;;;;;;4236986;28;20146;-84
2022/12/15 08:06:32;;;;;;;7.97;3.45;;;1.80;99.90;;;;;;4227546;28;20048;-84
2022/12/15 08:08:36;;;;;;;10.00;3.22;;;-0.10;99.90;;;;;;4202828;28;20055;-85
2022/12/15 08:10:40;;;;;;;10.80;3.45;;;0.00;99.90;;;;;;4202637;28;20053;-84
2022/12/15 08:12:40;;;;;;;10.05;3.10;;;0.20;99.90;;;;;;4223930;28;20087;-85
2022/12/15 08:14:42;;;;;;;12.98;3.97;;;0.00;99.90;;;;;;4219625;28;20131;-85
2022/12/15 08:16:53;;;;;;;15.90;3.72;;;0.00;99.90;;;;;;4204637;28;20136;-84
2022/12/15 08:18:58;;;;;;;9.30;3.42;;;0.00;99.90;;;;;;4204237;28;20040;-84
2022/12/15 08:21:08;;;;;;;8.43;2.78;;;0.80;99.90;;;;;;4220308;28;20036;-84
2022/12/15 08:23:10;;;;;;;8.55;2.80;;;0.00;99.90;;;;;;4220883;28;20044;-84
2022/12/15 08:25:10;;;;;;;9.95;3.22;;;1.70;99.90;;;;;;4202640;28;20076;-84
2022/12/15 08:27:12;;;;;;;9.18;3.25;;;0.20;99.90;;;;;;4207590;28;20044;-86
2022/12/15 08:29:13;;;;;;;4.70;2.53;;;1.00;99.90;;;;;;4212602;28;20048;-85
2022/12/15 08:31:19;;;;;;;10.50;2.92;;;0.20;99.90;;;;;;4209695;28;20079;-84
2022/12/15 08:33:21;;;;;;;8.95;3.65;;;1.10;99.90;;;;;;4222239;28;20051;-85
2022/12/15 08:35:23;;;;;;;11.57;3.40;;;0.40;99.90;;;;;;4238769;28;20047;-85
2022/12/15 08:37:29;;;;;;;10.35;3.97;;;0.40;99.90;;;;;;4234122;28;20476;-84
2022/12/15 08:39:31;;;;;;;7.68;3.40;;;1.70;99.90;;;;;;4206515;28;20069;-84
2022/12/15 08:41:35;;;;;;;11.73;3.58;;;2.00;99.90;;;;;;4214561;28;20052;-84
2022/12/15 08:43:38;;;;;;;8.48;3.10;;;0.70;99.90;;;;;;4228679;28;20042;-84
2022/12/15 08:45:40;;;;;;;9.18;2.88;;;0.90;99.90;;;;;;4230423;28;20111;-84
2022/12/15 08:47:40;;;;;;;7.50;2.75;;;0.80;99.90;;;;;;4240296;28;20040;-84
2022/12/15 08:49:42;;;;;;;8.55;2.92;;;2.80;99.90;;;;;;4229345;28;20435;-84
2022/12/15 08:51:44;;;;;;;8.45;2.90;;;1.20;99.90;;;;;;4226566;28;20048;-84
2022/12/15 08:53:51;;;;;;;4.88;2.72;;;1.10;99.90;;;;;;4220255;28;20048;-84
2022/12/15 08:55:54;;;;;;;6.30;2.90;;;3.30;99.90;;;;;;4218475;28;20093;-84
2022/12/15 08:57:56;;;;;;;8.73;3.10;;;3.20;99.90;;;;;;4203702;28;20594;-86
2022/12/15 08:59:57;;;;;;;4.68;2.30;;;3.30;99.90;;;;;;4205679;28;20051;-85
2022/12/15 09:02:00;;;;;;;10.52;3.05;;;4.40;99.90;;;;;;4203873;28;20519;-86
2022/12/15 09:04:03;;;;;;;7.88;3.05;;;3.40;99.90;;;;;;4233452;28;20040;-85
2022/12/15 09:06:10;;;;;;;6.93;3.70;;;3.90;99.90;;;;;;4221246;28;20040;-84
2022/12/15 09:08:12;;;;;;;6.18;2.88;;;1.30;99.90;;;;;;4226487;28;20047;-84
2022/12/15 09:10:14;;;;;;;8.68;2.95;;;3.90;99.90;;;;;;4213901;28;20079;-85
2022/12/15 09:12:14;;;;;;;6.97;3.65;;;2.40;99.90;;;;;;4219289;28;20101;-86
2022/12/15 09:14:18;;;;;;;6.40;2.90;;;2.80;99.90;;;;;;4216589;28;20044;-85
2022/12/15 09:16:20;;;;;;;9.52;2.78;;;3.90;99.90;;;;;;4226897;28;20043;-85
2022/12/15 09:18:22;;;;;;;8.27;3.25;;;2.70;99.90;;;;;;4223874;28;20043;-84
2022/12/15 09:20:24;;;;;;;12.05;3.88;;;4.20;99.90;;;;;;4218674;28;20044;-84
2022/12/15 09:22:24;;;;;;;6.57;2.85;;;2.60;99.90;;;;;;4230936;28;20047;-85
2022/12/15 09:24:26;;;;;;;4.90;2.75;;;4.80;99.90;;;;;;4218503;28;20048;-85
2022/12/15 09:26:31;;;;;;;5.78;2.58;;;4.10;99.90;;;;;;4219634;28;20381;-84
2022/12/15 09:28:33;;;;;;;8.32;2.60;;;4.80;99.90;;;;;;4220279;28;20048;-85
2022/12/15 09:30:34;;;;;;;6.30;2.75;;;5.20;99.90;;;;;;4218687;28;20564;-85
2022/12/15 09:32:35;;;;;;;8.20;2.60;;;5.80;99.90;;;;;;4216561;28;20040;-85
2022/12/15 09:34:37;;;;;;;7.70;2.72;;;5.90;99.90;;;;;;4220436;28;20048;-85
2022/12/15 09:36:39;;;;;;;8.60;2.67;;;7.50;99.90;;;;;;4215426;28;20491;-85
2022/12/15 09:38:41;;;;;;;4.88;2.83;;;7.50;99.90;;;;;;4232677;28;20537;-85
2022/12/15 09:40:43;;;;;;;7.55;2.75;;;6.30;99.90;;;;;;4233158;28;20575;-85
2022/12/15 09:42:51;;;;;;;7.50;2.83;;;6.40;99.90;;;;;;4233992;28;20043;-84
2022/12/15 09:45:07;;;;;;;11.10;3.92;;;7.30;99.90;;;;;;4210778;28;20099;-84
2022/12/15 09:47:29;;;;;;;8.13;3.13;;;6.60;99.90;;;;;;4216828;28;20044;-85
2022/12/15 09:49:33;;;;;;;6.43;2.58;;;6.20;99.90;;;;;;4230060;28;20423;-83
2022/12/15 09:51:45;;;;;;;7.70;3.05;;;7.80;99.90;;;;;;4220920;28;20044;-84
2022/12/15 09:53:46;;;;;;;7.78;4.07;;;4.40;99.90;;;;;;4230131;28;20417;-83
2022/12/15 09:56:08;;;;;;;8.65;2.40;;;6.70;99.90;;;;;;4225673;28;20496;-85
2022/12/15 09:58:40;;;;;;;8.48;3.05;;;7.10;99.90;;;;;;4197429;28;20189;-85
2022/12/15 10:00:57;;;;;;;4.90;2.50;;;5.00;99.90;;;;;;4214904;28;20052;-84
2022/12/15 10:03:22;;;;;;;6.70;2.38;;;4.80;99.90;;;;;;4214787;28;20036;-84
2022/12/15 10:05:46;;;;;;;7.45;3.25;;;4.70;99.90;;;;;;4216431;28;20145;-84
2022/12/15 10:07:49;;;;;;;6.90;2.80;;;4.60;99.90;;;;;;4218120;28;20051;-84
2022/12/15 10:09:50;;;;;;;5.35;2.45;;;4.60;99.90;;;;;;4217037;28;20480;-87
2022/12/15 10:12:15;;;;;;;5.18;2.50;;;4.30;99.90;;;;;;4208836;28;20068;-86
2022/12/15 10:14:38;;;;;;;6.68;2.97;;;4.50;99.90;;;;;;4218357;28;20149;-87
2022/12/15 10:16:46;;;;;;;11.55;3.38;;;4.60;99.90;;;;;;4235817;27;20500;-86
2022/12/15 10:19:15;;;;;;;8.85;2.20;;;4.70;99.90;;;;;;4235855;28;20048;-87
2022/12/15 10:21:15;;;;;;;;;;;4.70;99.90;;;;;;4215992;28;20450;-87
2022/12/15 10:23:24;;;;;;;9.85;2.65;;;4.70;99.90;;;;;;4216751;28;20011;-86
2022/12/15 10:25:30;;;;;;;8.50;2.78;;;4.70;99.90;;;;;;4236453;28;20079;-87
2022/12/15 10:28:02;;;;;;;8.73;3.10;;;5.10;99.90;;;;;;4237265;28;20058;-87
2022/12/15 10:30:07;;;;;;;4.60;2.53;;;4.80;99.90;;;;;;4234375;28;20051;-86
2022/12/15 10:32:18;;;;;;;8.05;3.50;;;4.80;99.90;;;;;;4233249;28;20077;-86
2022/12/15 10:34:27;;;;;;;9.00;3.25;;;5.70;99.90;;;;;;4226121;28;20450;-86
2022/12/15 10:36:28;;;;;;;9.90;3.65;;;4.30;99.90;;;;;;4217272;28;20071;-86
2022/12/15 10:38:42;;;;;;;7.65;3.65;;;5.00;99.90;;;;;;4216439;28;20054;-86
2022/12/15 10:40:57;;;;;;;6.85;2.60;;;5.00;99.90;;;;;;4200274;28;20070;-86
2022/12/15 10:42:59;;;;;;;7.93;3.33;;;5.10;99.90;;;;;;4200067;28;20070;-86
2022/12/15 10:44:59;;;;;;;8.98;3.25;;;5.10;99.90;;;;;;4216034;28;20145;-86
2022/12/15 10:47:09;;;;;;;6.70;2.83;;;5.00;99.90;;;;;;4211628;28;20461;-86
2022/12/15 10:49:10;;;;;;;7.72;3.05;;;5.80;99.90;;;;;;4234363;28;20225;-86
2022/12/15 10:51:31;;;;;;;8.40;2.92;;;5.20;99.90;;;;;;4215020;28;20440;-87
2022/12/15 10:53:44;;;;;;;14.43;3.38;;;5.40;99.90;;;;;;4232191;28;20075;-86
2022/12/15 10:55:44;;;;;;;6.63;2.75;;;5.30;99.90;;;;;;4207140;28;20546;-88
2022/12/15 10:57:58;;;;;;;6.32;3.03;;;5.70;99.90;;;;;;4203056;28;20036;-88
2022/12/15 11:00:14;;;;;;;9.43;2.55;;;5.40;99.90;;;;;;4232547;28;20123;-88
2022/12/15 11:02:32;;;;;;;6.07;2.40;;;4.90;99.90;;;;;;4200030;28;20053;-88
2022/12/15 11:04:34;;;;;;;7.65;2.97;;;5.50;99.90;;;;;;4209428;28;20527;-88
2022/12/15 11:06:41;;;;;;;8.60;3.10;;;5.60;99.90;;;;;;4235433;28;20035;-89
2022/12/15 11:08:43;;;;;;;6.20;2.08;;;5.60;99.90;;;;;;4235645;28;20043;-88
2022/12/15 11:13:18;;;;;;;7.85;2.92;;;5.60;99.90;;;;;;4233817;28;20056;-87
2022/12/15 11:15:22;;;;;;;6.70;3.25;;;7.00;99.90;;;;;;4215781;28;20101;-88
2022/12/15 11:17:23;;;;;;;7.47;2.45;;;5.70;99.90;;;;;;4232974;28;20085;-88
2022/12/15 11:19:57;;;;;;;5.47;2.25;;;7.20;99.90;;;;;;4216520;28;20131;-87
2022/12/15 11:22:04;;;;;;;5.25;2.95;;;5.50;99.90;;;;;;4204247;28;20060;-88
2022/12/15 11:24:14;;;;;;;6.13;2.83;;;4.70;99.90;;;;;;4233761;28;20056;-88
2022/12/15 11:26:47;;;;;;;13.82;3.10;;;5.20;99.90;;;;;;4233926;28;20051;-87
2022/12/15 11:28:59;;;;;;;7.65;2.55;;;5.80;99.90;;;;;;4219611;28;20054;-87
2022/12/15 11:31:21;;;;;;;8.60;2.40;;;6.30;99.90;;;;;;4237720;28;20068;-87
2022/12/15 11:33:23;;;;;;;13.85;2.88;;;5.90;99.90;;;;;;4218934;28;20048;-87
2022/12/15 11:35:34;;;;;;;5.70;2.45;;;6.80;99.90;;;;;;4235228;28;20048;-87
2022/12/15 11:37:35;;;;;;;5.40;2.25;;;5.20;99.90;;;;;;4235485;28;20040;-88
2022/12/15 11:39:57;;;;;;;8.95;3.35;;;6.90;99.90;;;;;;4235873;28;20096;-87
2022/12/15 11:42:28;;;;;;;11.15;3.17;;;5.70;99.90;;;;;;4229348;28;20052;-88
2022/12/15 11:44:44;;;;;;;10.90;2.80;;;5.80;99.90;;;;;;4226330;28;20048;-87
2022/12/15 11:47:00;;;;;;;8.63;3.33;;;5.70;99.90;;;;;;4211019;28;20051;-87
2022/12/15 11:49:24;;;;;;;5.22;2.15;;;6.20;99.90;;;;;;4204341;28;20044;-88
2022/12/15 11:51:54;;;;;;;11.27;2.95;;;6.20;99.90;;;;;;4183109;28;20469;-88
2022/12/15 11:54:17;;;;;;;9.35;3.08;;;5.80;99.90;;;;;;4193020;28;20057;-88
2022/12/15 11:56:35;;;;;;;7.57;2.50;;;6.00;99.90;;;;;;4226647;28;20441;-88
2022/12/15 11:59:07;;;;;;;5.40;2.10;;;5.90;99.70;;;;;;4235200;28;20071;-88
2022/12/15 12:01:47;;;;;;;5.40;2.95;;;6.10;99.90;;;;;;4219075;28;20032;-87
2022/12/15 12:04:47;;;;;;;8.57;2.70;;;6.10;99.90;;;;;;4215151;28;20508;-89
2022/12/15 12:07:14;;;;;;;7.50;2.65;;;6.40;99.50;;;;;;4207484;28;20056;-87
2022/12/15 12:09:28;;;;;;;5.22;2.38;;;6.60;99.90;;;;;;4196796;28;20044;-86
2022/12/15 12:11:54;;;;;;;7.65;2.65;;;6.50;99.90;;;;;;4215480;28;20053;-88
2022/12/15 12:14:30;;;;;;;10.00;3.10;;;6.40;98.80;;;;;;4215560;28;20048;-87
2022/12/15 12:16:42;;;;;;;10.15;2.38;;;6.80;99.10;;;;;;4198087;28;20044;-87
2022/12/15 12:19:07;;;;;;;3.60;2.10;;;6.50;99.40;;;;;;4218014;28;20040;-87
2022/12/15 12:21:14;;;;;;;11.30;2.15;;;8.00;99.40;;;;;;4198760;28;20072;-87
2022/12/15 12:23:20;;;;;;;10.38;3.42;;;6.70;99.00;;;;;;4216724;28;20044;-87
2022/12/15 12:25:24;;;;;;;6.80;2.60;;;7.70;98.70;;;;;;4198837;28;20052;-88
2022/12/15 12:27:52;;;;;;;5.90;2.10;;;6.80;98.90;;;;;;4215881;28;20074;-87
2022/12/15 12:30:01;;;;;;;7.07;2.22;;;6.90;98.90;;;;;;4216294;28;20166;-87
2022/12/15 12:32:32;;;;;;;8.77;2.70;;;8.40;99.10;;;;;;4199179;28;20432;-88
2022/12/15 12:34:45;;;;;;;8.38;2.33;;;7.30;98.50;;;;;;4217533;28;20048;-88
2022/12/15 12:36:47;;;;;;;4.57;1.70;;;7.30;98.30;;;;;;4199765;28;20071;-89
2022/12/15 12:38:52;;;;;;;6.05;3.08;;;9.20;98.60;;;;;;4198379;28;20075;-88
2022/12/15 12:40:59;;;;;;;5.28;2.20;;;7.40;98.70;;;;;;4216576;28;20051;-88
2022/12/15 12:43:01;;;;;;;5.03;1.83;;;7.40;97.70;;;;;;4216708;28;20117;-88
2022/12/15 12:45:02;;;;;;;4.53;1.92;;;7.50;98.00;;;;;;4216969;28;20051;-88
2022/12/15 12:47:12;;;;;;;7.75;2.15;;;7.50;98.40;;;;;;4199586;28;20365;-88
2022/12/15 12:49:26;;;;;;;13.13;3.88;;;8.80;97.20;;;;;;4226590;28;20135;-87
2022/12/15 12:51:41;;;;;;;4.85;2.80;;;7.40;97.30;;;;;;4228477;28;20048;-87
2022/12/15 12:53:42;;;;;;;5.00;2.33;;;7.40;96.60;;;;;;4232535;28;20103;-87
2022/12/15 12:55:44;;;;;;;6.85;2.72;;;7.50;97.40;;;;;;4229224;28;20032;-87
2022/12/15 12:57:46;;;;;;;6.68;2.60;;;8.50;97.80;;;;;;4212985;28;20048;-87
2022/12/15 13:00:11;;;;;;;4.40;2.17;;;7.60;97.30;;;;;;4217600;28;20040;-88
2022/12/15 13:02:23;;;;;;;10.80;2.90;;;7.50;96.50;;;;;;4215853;28;20142;-86
2022/12/15 13:04:32;;;;;;;6.90;2.90;;;7.50;96.40;;;;;;4229441;28;20097;-85
2022/12/15 13:06:33;;;;;;;8.48;2.28;;;8.40;97.00;;;;;;4234416;28;20047;-85
2022/12/15 13:08:51;;;;;;;5.10;2.40;;;7.90;96.90;;;;;;4231814;28;20088;-84
2022/12/15 13:10:56;;;;;;;5.13;2.17;;;8.70;95.90;;;;;;4232813;28;20051;-85
2022/12/15 13:13:14;;;;;;;6.07;2.20;;;7.90;96.20;;;;;;4231810;28;20043;-84
2022/12/15 13:15:27;;;;;;;5.18;2.65;;;7.60;95.80;;;;;;4232149;28;20100;-85
2022/12/15 13:17:37;;;;;;;9.68;2.70;;;7.60;96.00;;;;;;4231539;28;20515;-85
2022/12/15 13:19:59;;;;;;;8.88;2.50;;;7.60;96.30;;;;;;4233368;28;20404;-85
2022/12/15 13:22:00;;;;;;;7.60;2.35;;;7.80;95.40;;;;;;4230716;28;20193;-85
2022/12/15 13:24:02;;;;;;;7.25;2.78;;;7.80;96.10;;;;;;4233431;28;20483;-85
2022/12/15 13:26:03;;;;;;;13.15;3.55;;;7.80;95.80;;;;;;4213889;28;20106;-86
2022/12/15 13:28:17;;;;;;;7.38;2.40;;;8.50;96.20;;;;;;4230687;28;20051;-85
2022/12/15 13:30:18;;;;;;;7.05;2.58;;;7.90;95.30;;;;;;4231509;28;20055;-85
2022/12/15 13:32:46;;;;;;;9.20;3.25;;;7.80;95.30;;;;;;4230287;28;20163;-85
2022/12/15 13:34:47;;;;;;;5.78;2.25;;;7.60;95.10;;;;;;4228505;28;20555;-85